Time;durP1;ratioP1;P1;durP2;ratioP2;P2;SDS_P1;SDS_P2;PMS_P1;PMS_P2;Temp;Humidity;BMP_temperature;BMP_pressure;BME280_temperature;BME280_humidity;BME280_pressure;Samples;Min_cycle;Max_cycle;Signal;HPM_P1;HPM_P2
2023/10/30 00:01:10;;;;;;;5.63;1.90;;;;;;;11.04;100.00;98919.81;4966416;28;20318;-76
2023/10/30 00:03:35;;;;;;;3.80;2.17;;;;;;;11.03;100.00;98923.31;4981485;28;20265;-76
2023/10/30 00:06:00;;;;;;;4.67;2.20;;;;;;;10.96;100.00;98935.00;4991098;28;20214;-76
2023/10/30 00:08:26;;;;;;;5.93;2.30;;;;;;;10.95;100.00;98935.94;4991003;28;20551;-77
2023/10/30 00:10:51;;;;;;;4.13;2.30;;;;;;;10.85;100.00;98940.16;4979942;28;20273;-76
2023/10/30 00:13:16;;;;;;;8.43;2.77;;;;;;;10.75;100.00;98940.81;4993901;28;20195;-76
2023/10/30 00:15:42;;;;;;;3.40;2.40;;;;;;;10.72;100.00;98943.63;4989091;28;20176;-78
2023/10/30 00:18:07;;;;;;;10.83;2.73;;;;;;;10.66;100.00;98942.31;4990869;28;20642;-78
2023/10/30 00:20:36;;;;;;;5.30;2.40;;;;;;;10.75;100.00;98937.44;4979523;28;20227;-78
2023/10/30 00:23:01;;;;;;;5.40;3.30;;;;;;;10.57;100.00;98940.44;4991330;28;20259;-78
2023/10/30 00:25:26;;;;;;;5.63;4.17;;;;;;;10.62;100.00;98942.66;4990831;28;20694;-78
2023/10/30 00:27:52;;;;;;;11.63;4.20;;;;;;;10.73;100.00;98952.16;4992584;28;20298;-76
2023/10/30 00:30:18;;;;;;;5.33;4.27;;;;;;;10.78;100.00;98938.03;4962750;28;20190;-77
2023/10/30 00:32:43;;;;;;;11.00;4.90;;;;;;;10.61;100.00;98930.75;4989646;28;20188;-77
2023/10/30 00:35:08;;;;;;;6.97;5.43;;;;;;;10.65;100.00;98938.13;4993549;28;20179;-76
2023/10/30 00:37:33;;;;;;;5.43;4.53;;;;;;;10.80;100.00;98936.16;4994922;28;20778;-77
2023/10/30 00:39:59;;;;;;;6.87;5.03;;;;;;;10.75;100.00;98934.84;4994843;28;20325;-77
2023/10/30 00:42:27;;;;;;;7.93;5.13;;;;;;;10.71;100.00;98941.16;5000388;28;20286;-76
2023/10/30 00:44:52;;;;;;;6.37;5.20;;;;;;;10.80;100.00;98956.75;4994725;28;20972;-77
2023/10/30 00:47:17;;;;;;;6.10;5.20;;;;;;;10.74;100.00;98939.19;4995796;28;20191;-78
2023/10/30 00:49:43;;;;;;;8.60;5.27;;;;;;;10.87;100.00;98923.66;4994505;28;20531;-78
2023/10/30 00:52:08;;;;;;;6.37;5.00;;;;;;;10.58;100.00;98905.22;4984418;28;20285;-77
2023/10/30 00:54:33;;;;;;;8.57;4.83;;;;;;;10.70;100.00;98917.19;4994994;28;20183;-77
2023/10/30 00:56:58;;;;;;;6.70;4.73;;;;;;;10.76;100.00;98986.19;4994396;28;20229;-76
2023/10/30 00:59:24;;;;;;;6.53;4.60;;;;;;;10.79;100.00;98977.41;4992663;28;20207;-76
2023/10/30 01:01:49;;;;;;;6.03;4.40;;;;;;;10.94;100.00;98993.47;4990648;28;20244;-77
2023/10/30 01:04:15;;;;;;;6.87;4.30;;;;;;;10.87;100.00;98975.09;4997657;28;20230;-76
2023/10/30 01:06:40;;;;;;;5.77;3.90;;;;;;;11.00;100.00;98987.88;4995399;28;20242;-77
2023/10/30 01:09:05;;;;;;;8.13;4.17;;;;;;;10.82;100.00;98972.88;4994404;28;20262;-78
2023/10/30 01:11:30;;;;;;;4.10;3.40;;;;;;;10.79;100.00;98987.69;4995896;28;20234;-77
2023/10/30 01:13:56;;;;;;;4.77;3.10;;;;;;;10.82;100.00;98993.44;4993833;28;20183;-76
2023/10/30 01:16:21;;;;;;;5.57;3.03;;;;;;;10.80;100.00;98972.19;4995185;28;20187;-76
2023/10/30 01:18:47;;;;;;;4.47;3.07;;;;;;;10.80;100.00;98977.31;4995212;28;20188;-76
2023/10/30 01:21:12;;;;;;;6.60;2.77;;;;;;;10.83;100.00;98976.28;4986971;28;20714;-77
2023/10/30 01:23:38;;;;;;;4.17;2.50;;;;;;;10.79;100.00;98973.09;5000656;28;20187;-77
2023/10/30 01:26:04;;;;;;;3.97;2.33;;;;;;;10.92;100.00;98972.19;4995801;28;20282;-78
2023/10/30 01:28:29;;;;;;;5.93;2.03;;;;;;;10.95;100.00;98977.94;5009233;28;20635;-75
2023/10/30 01:30:55;;;;;;;5.93;2.50;;;;;;;10.92;100.00;98969.63;4992278;28;20234;-76
2023/10/30 01:33:20;;;;;;;3.73;2.30;;;;;;;11.01;100.00;98963.78;5002360;28;20647;-76
2023/10/30 01:35:45;;;;;;;3.10;2.00;;;;;;;11.04;100.00;98961.00;4993795;28;20651;-78
2023/10/30 01:38:11;;;;;;;5.00;2.00;;;;;;;10.96;100.00;98953.03;4995569;28;20266;-77
2023/10/30 01:40:36;;;;;;;6.50;2.47;;;;;;;10.94;100.00;98953.16;4986531;28;20235;-78
2023/10/30 01:43:08;;;;;;;6.17;2.23;;;;;;;10.95;100.00;98941.94;5004211;28;20183;-77
2023/10/30 01:45:34;;;;;;;5.60;2.27;;;;;;;11.03;100.00;98950.81;4993350;28;20187;-78
2023/10/30 01:47:59;;;;;;;5.33;2.07;;;;;;;11.07;100.00;98955.59;4994816;28;20234;-76
2023/10/30 01:50:24;;;;;;;10.27;2.37;;;;;;;11.01;100.00;98947.53;4987154;28;20602;-81
2023/10/30 01:52:50;;;;;;;4.07;1.83;;;;;;;10.97;100.00;98937.47;4992736;28;20175;-76
2023/10/30 01:55:16;;;;;;;4.23;2.10;;;;;;;11.04;100.00;98937.84;4993409;28;20242;-76
2023/10/30 01:57:42;;;;;;;4.30;1.90;;;;;;;11.12;100.00;98955.28;4993293;28;20179;-76
2023/10/30 02:00:08;;;;;;;3.60;2.10;;;;;;;11.14;100.00;98959.38;4983748;28;20202;-76
2023/10/30 02:02:34;;;;;;;5.07;1.90;;;;;;;11.19;100.00;98960.75;5007618;28;20180;-76
2023/10/30 02:04:59;;;;;;;9.37;2.30;;;;;;;11.17;100.00;98962.66;4993163;28;20266;-75
2023/10/30 02:07:25;;;;;;;3.47;1.83;;;;;;;11.23;100.00;98964.78;4992985;28;20197;-77
2023/10/30 02:09:51;;;;;;;7.60;1.90;;;;;;;11.18;100.00;98961.72;4993296;28;20183;-77
2023/10/30 02:12:16;;;;;;;3.83;2.00;;;;;;;11.08;100.00;98959.03;4998864;28;20252;-77
2023/10/30 02:14:41;;;;;;;6.17;2.40;;;;;;;11.08;100.00;98961.59;4992834;28;20214;-76
2023/10/30 02:17:07;;;;;;;5.70;1.67;;;;;;;11.07;100.00;98941.94;4994320;28;20253;-76
2023/10/30 02:19:32;;;;;;;8.23;2.10;;;;;;;11.14;100.00;98948.25;4992857;28;20667;-76
2023/10/30 02:21:57;;;;;;;6.97;2.00;;;;;;;10.95;100.00;98934.22;4985532;28;20253;-77
2023/10/30 02:24:24;;;;;;;5.37;1.63;;;;;;;11.11;100.00;98943.34;4995299;28;20218;-77
2023/10/30 02:26:50;;;;;;;9.03;1.97;;;;;;;10.93;100.00;98945.53;4993793;28;20211;-78
2023/10/30 02:29:16;;;;;;;5.50;1.77;;;;;;;11.04;100.00;98953.28;4992927;28;20194;-77
2023/10/30 02:31:42;;;;;;;4.87;1.93;;;;;;;11.18;100.00;98959.16;4985103;28;20223;-76
2023/10/30 02:34:08;;;;;;;5.60;1.60;;;;;;;11.08;100.00;98953.88;4996934;28;20229;-76
2023/10/30 02:36:33;;;;;;;4.80;2.50;;;;;;;11.22;100.00;98955.41;4992551;28;20259;-78
2023/10/30 02:38:58;;;;;;;4.63;1.80;;;;;;;11.28;100.00;98958.31;4992755;28;20172;-78
2023/10/30 02:41:29;;;;;;;6.50;2.03;;;;;;;11.16;100.00;98951.53;4994212;28;20341;-76
2023/10/30 02:43:54;;;;;;;4.20;1.60;;;;;;;10.98;100.00;98951.16;4998035;28;20217;-75
2023/10/30 02:46:19;;;;;;;7.70;1.63;;;;;;;10.96;100.00;98938.41;4994315;28;20216;-77
2023/10/30 02:48:44;;;;;;;4.97;1.73;;;;;;;10.94;100.00;98917.13;4992285;28;20278;-76
2023/10/30 02:51:10;;;;;;;5.13;1.80;;;;;;;10.96;100.00;98925.56;4985392;28;20223;-76
2023/10/30 02:53:36;;;;;;;3.10;1.73;;;;;;;10.98;100.00;98933.16;4991914;28;20266;-76
2023/10/30 02:56:01;;;;;;;6.03;1.80;;;;;;;11.03;100.00;98927.66;4993155;28;20242;-77
2023/10/30 02:58:26;;;;;;;6.40;1.67;;;;;;;11.07;100.00;98937.59;4991719;28;20230;-76
2023/10/30 03:00:55;;;;;;;4.33;1.80;;;;;;;10.79;100.00;98924.22;4984552;28;20231;-77
2023/10/30 03:03:21;;;;;;;4.07;1.70;;;;;;;10.86;100.00;98929.72;4991615;28;20310;-77
2023/10/30 03:05:47;;;;;;;4.47;1.67;;;;;;;10.93;100.00;98941.22;4993276;28;20703;-77
2023/10/30 03:08:12;;;;;;;3.00;1.33;;;;;;;11.00;100.00;98951.03;4992432;28;20294;-77
2023/10/30 03:10:37;;;;;;;2.93;1.30;;;;;;;11.07;100.00;98944.50;4984779;28;20230;-76
2023/10/30 03:13:02;;;;;;;5.27;1.37;;;;;;;11.01;100.00;98932.09;5003760;28;20226;-76
2023/10/30 03:15:28;;;;;;;7.10;1.70;;;;;;;11.00;100.00;98930.47;4993221;28;20592;-77
2023/10/30 03:17:53;;;;;;;5.30;1.27;;;;;;;10.64;100.00;98923.63;4992997;28;20187;-77
2023/10/30 03:20:18;;;;;;;4.63;1.37;;;;;;;10.51;100.00;98940.06;4983864;28;20206;-77
2023/10/30 03:22:43;;;;;;;6.47;1.70;;;;;;;10.50;100.00;98936.66;4991181;28;20210;-76
2023/10/30 03:25:09;;;;;;;3.33;1.27;;;;;;;10.42;100.00;98926.09;4991440;28;20693;-77
2023/10/30 03:27:35;;;;;;;4.93;1.50;;;;;;;10.45;100.00;98918.19;4993111;28;20194;-77
2023/10/30 03:30:00;;;;;;;5.90;1.57;;;;;;;10.65;100.00;98932.13;4991578;28;20524;-77
2023/10/30 03:32:26;;;;;;;7.53;1.53;;;;;;;10.41;100.00;98938.16;4981176;28;20227;-78
2023/10/30 03:34:52;;;;;;;4.30;1.53;;;;;;;10.37;100.00;98936.75;4991620;28;20175;-78
2023/10/30 03:37:18;;;;;;;6.63;1.53;;;;;;;10.38;100.00;98935.81;4992994;28;20210;-78
2023/10/30 03:39:43;;;;;;;2.90;1.13;;;;;;;10.58;100.00;98952.34;4993000;28;20235;-78
2023/10/30 03:42:08;;;;;;;3.43;1.30;;;;;;;10.64;100.00;98949.34;4983484;28;20222;-76
2023/10/30 03:44:33;;;;;;;5.40;1.50;;;;;;;10.65;100.00;98947.56;4992401;28;20187;-77
2023/10/30 03:46:59;;;;;;;4.80;1.70;;;;;;;10.55;100.00;98954.31;4991225;28;20191;-76
2023/10/30 03:49:24;;;;;;;3.27;1.10;;;;;;;10.51;100.00;98964.00;4992801;28;20237;-76
2023/10/30 03:51:50;;;;;;;4.73;1.20;;;;;;;10.51;100.00;98976.88;4995679;28;20222;-76
2023/10/30 03:54:15;;;;;;;3.50;1.40;;;;;;;10.53;100.00;98969.03;4994022;28;20229;-76
2023/10/30 03:56:40;;;;;;;3.93;1.50;;;;;;;10.56;100.00;98968.81;4992360;28;20199;-76
2023/10/30 03:59:05;;;;;;;6.13;1.47;;;;;;;10.73;100.00;98950.41;4991022;28;20187;-76
2023/10/30 04:01:31;;;;;;;4.77;1.60;;;;;;;10.82;100.00;98960.00;4982316;28;20227;-76
2023/10/30 04:03:56;;;;;;;5.33;1.10;;;;;;;10.66;100.00;98974.94;4993567;28;20310;-76
2023/10/30 04:06:21;;;;;;;4.37;1.40;;;;;;;10.76;100.00;98962.22;4990579;28;20190;-76
2023/10/30 04:08:47;;;;;;;4.23;1.20;;;;;;;10.71;100.00;98964.31;4990350;28;20187;-75
2023/10/30 04:11:16;;;;;;;3.37;1.97;;;;;;;10.79;100.00;98943.97;4990444;28;20380;-75
2023/10/30 04:13:41;;;;;;;2.70;1.30;;;;;;;10.76;100.00;98936.50;4989774;28;20179;-77
2023/10/30 04:16:10;;;;;;;3.90;1.23;;;;;;;10.66;100.00;98933.78;4990171;28;20536;-75
2023/10/30 04:18:35;;;;;;;3.33;1.23;;;;;;;10.63;100.00;98944.28;4990406;28;20613;-75
2023/10/30 04:21:00;;;;;;;2.37;1.10;;;;;;;10.80;100.00;98950.75;4983146;28;20258;-76
2023/10/30 04:23:26;;;;;;;5.63;1.40;;;;;;;10.68;100.00;98947.34;4989807;28;20218;-77
2023/10/30 04:25:51;;;;;;;5.03;1.17;;;;;;;10.51;100.00;98945.22;4991173;28;20213;-74
2023/10/30 04:28:16;;;;;;;4.10;1.43;;;;;;;10.44;100.00;98950.78;4989990;28;20654;-76
2023/10/30 04:30:41;;;;;;;3.67;1.30;;;;;;;10.57;100.00;98952.47;4962511;28;20261;-76
2023/10/30 04:33:07;;;;;;;5.23;1.50;;;;;;;10.53;100.00;98933.03;4989062;28;20183;-77
2023/10/30 04:35:32;;;;;;;6.97;1.43;;;;;;;10.44;100.00;98927.66;4991582;28;20218;-77
2023/10/30 04:37:57;;;;;;;5.90;1.40;;;;;;;10.56;100.00;98919.97;4991154;28;20188;-76
2023/10/30 04:40:23;;;;;;;5.90;1.50;;;;;;;10.57;100.00;98911.34;4982570;28;20299;-75
2023/10/30 04:42:48;;;;;;;4.00;1.17;;;;;;;10.49;100.00;98904.16;5002772;28;20184;-76
2023/10/30 04:45:13;;;;;;;4.30;1.23;;;;;;;10.51;100.00;98911.78;4989740;28;20249;-77
2023/10/30 04:47:39;;;;;;;4.50;1.57;;;;;;;10.61;100.00;98926.41;4991050;28;20205;-76
2023/10/30 04:50:04;;;;;;;5.83;1.60;;;;;;;10.64;100.00;98931.34;4981302;28;20192;-76
2023/10/30 04:52:30;;;;;;;5.10;1.63;;;;;;;10.64;100.00;98923.63;5004953;28;20186;-77
2023/10/30 04:54:55;;;;;;;3.57;1.20;;;;;;;10.70;100.00;98924.09;4989822;28;20630;-77
2023/10/30 04:57:20;;;;;;;3.70;1.53;;;;;;;10.74;100.00;98926.34;4989939;28;20275;-78
2023/10/30 04:59:46;;;;;;;4.63;1.43;;;;;;;10.68;100.00;98923.38;4991052;28;20199;-80
2023/10/30 05:02:11;;;;;;;7.27;1.73;;;;;;;10.55;100.00;98913.19;4981356;28;20233;-80
2023/10/30 05:04:36;;;;;;;4.87;1.23;;;;;;;10.58;100.00;98911.22;4954636;28;1046123;-80
2023/10/30 05:07:02;;;;;;;4.93;1.63;;;;;;;10.67;100.00;98925.13;4990511;28;20670;-80
2023/10/30 05:09:27;;;;;;;5.47;1.50;;;;;;;10.49;100.00;98937.59;4990962;28;20183;-79
2023/10/30 05:11:52;;;;;;;5.70;1.37;;;;;;;10.45;100.00;98938.75;4983362;28;20230;-77
2023/10/30 05:14:18;;;;;;;4.27;1.93;;;;;;;10.32;100.00;98933.66;4990494;28;20180;-78
2023/10/30 05:16:43;;;;;;;7.47;1.63;;;;;;;10.24;100.00;98944.47;4990342;28;20187;-76
2023/10/30 05:19:09;;;;;;;2.40;1.30;;;;;;;10.28;100.00;98956.19;4991708;28;20215;-75
2023/10/30 05:21:34;;;;;;;7.80;1.93;;;;;;;10.26;100.00;98949.50;4996111;28;20304;-77
2023/10/30 05:23:59;;;;;;;7.17;1.77;;;;;;;10.25;100.00;98956.38;4998873;28;20211;-79
2023/10/30 05:26:24;;;;;;;8.53;2.10;;;;;;;10.23;100.00;98976.22;4994097;28;20612;-77
2023/10/30 05:28:50;;;;;;;5.27;2.30;;;;;;;10.20;100.00;98978.22;4993851;28;20186;-81
2023/10/30 05:31:16;;;;;;;4.03;1.90;;;;;;;10.26;100.00;98991.44;4987179;28;20229;-80
2023/10/30 05:33:41;;;;;;;5.37;2.30;;;;;;;10.37;100.00;98997.59;5001314;28;20199;-82
2023/10/30 05:36:09;;;;;;;7.43;2.20;;;;;;;10.35;100.00;98989.97;4994381;28;20195;-79
2023/10/30 05:38:34;;;;;;;4.47;2.27;;;;;;;10.37;100.00;98988.16;4995402;28;20179;-80
2023/10/30 05:40:59;;;;;;;8.03;2.40;;;;;;;10.28;100.00;98989.59;4973840;28;20813;-77
2023/10/30 05:43:25;;;;;;;4.00;2.87;;;;;;;10.24;100.00;98977.88;5002019;28;20230;-71
2023/10/30 05:45:50;;;;;;;5.73;2.03;;;;;;;10.23;100.00;98963.38;4994401;28;20187;-71
2023/10/30 05:48:16;;;;;;;8.27;2.53;;;;;;;10.26;100.00;98957.22;4993338;28;20183;-74
2023/10/30 05:50:42;;;;;;;7.17;3.20;;;;;;;10.20;100.00;98968.75;4989576;28;20226;-75
2023/10/30 05:53:07;;;;;;;5.97;3.13;;;;;;;10.25;100.00;99004.41;5004490;28;20258;-75
2023/10/30 05:55:32;;;;;;;5.53;2.80;;;;;;;10.36;100.00;99026.75;4993284;28;20194;-76
2023/10/30 05:57:58;;;;;;;7.47;3.20;;;;;;;10.35;100.00;99010.53;4992970;28;20286;-75
2023/10/30 06:00:24;;;;;;;4.77;2.83;;;;;;;10.39;100.00;99006.03;4979133;28;20262;-75
2023/10/30 06:02:51;;;;;;;4.90;3.00;;;;;;;10.27;100.00;98989.69;4985589;28;20311;-77
2023/10/30 06:05:16;;;;;;;5.87;3.03;;;;;;;10.32;100.00;98973.03;4987954;28;20179;-75
2023/10/30 06:07:41;;;;;;;7.93;3.63;;;;;;;10.37;100.00;98959.88;4993084;28;20234;-75
2023/10/30 06:10:11;;;;;;;5.90;3.57;;;;;;;10.39;100.00;98964.91;4983745;28;20187;-76
2023/10/30 06:12:37;;;;;;;7.03;3.20;;;;;;;10.49;100.00;98960.72;4981456;28;20175;-76
2023/10/30 06:15:04;;;;;;;4.97;3.10;;;;;;;10.53;100.00;98953.59;4994468;28;20877;-76
2023/10/30 06:17:29;;;;;;;4.57;2.90;;;;;;;10.42;100.00;98950.06;4994334;28;20176;-76
2023/10/30 06:19:55;;;;;;;7.33;3.43;;;;;;;10.47;100.00;98960.84;4992791;28;20229;-76
2023/10/30 06:22:21;;;;;;;8.53;3.60;;;;;;;10.38;100.00;98956.38;4998532;28;20234;-75
2023/10/30 06:24:46;;;;;;;4.50;3.30;;;;;;;10.38;100.00;98952.97;4993797;28;20666;-76
2023/10/30 06:27:12;;;;;;;6.83;3.90;;;;;;;10.37;100.00;98965.00;4992665;28;20179;-76
2023/10/30 06:29:37;;;;;;;7.47;4.10;;;;;;;10.39;100.00;98982.88;4992476;28;20183;-76
2023/10/30 06:32:02;;;;;;;4.57;3.03;;;;;;;10.44;100.00;98991.94;4984145;28;20230;-76
2023/10/30 06:34:28;;;;;;;9.17;4.00;;;;;;;10.34;100.00;99001.19;4992067;28;20651;-75
2023/10/30 06:36:53;;;;;;;9.30;4.40;;;;;;;10.31;100.00;98991.13;4993861;28;20194;-76
2023/10/30 06:39:20;;;;;;;8.23;4.23;;;;;;;10.32;100.00;98985.06;4993220;28;20318;-77
2023/10/30 06:41:48;;;;;;;9.77;4.50;;;;;;;10.27;100.00;98987.13;4996436;28;20639;-78
2023/10/30 06:44:14;;;;;;;8.07;4.43;;;;;;;10.29;100.00;98985.25;4995468;28;20187;-76
2023/10/30 06:46:39;;;;;;;8.97;4.60;;;;;;;10.28;100.00;98983.63;4993598;28;20210;-76
2023/10/30 06:49:05;;;;;;;9.87;5.33;;;;;;;10.13;100.00;98985.53;4993775;28;20307;-75
2023/10/30 06:51:30;;;;;;;6.17;4.67;;;;;;;10.21;100.00;98990.13;4984717;28;20227;-76
2023/10/30 06:53:55;;;;;;;6.53;4.07;;;;;;;10.16;100.00;98991.28;4992138;28;20526;-75
2023/10/30 06:56:20;;;;;;;6.80;4.90;;;;;;;10.23;100.00;98994.22;4992087;28;20195;-75
2023/10/30 06:58:46;;;;;;;10.43;5.83;;;;;;;10.18;100.00;99004.84;4991151;28;20539;-74
2023/10/30 07:01:11;;;;;;;7.13;5.80;;;;;;;10.31;100.00;98999.66;4985025;28;20226;-75
2023/10/30 07:03:36;;;;;;;12.80;7.07;;;;;;;10.28;100.00;98997.31;4991180;28;20235;-75
2023/10/30 07:06:02;;;;;;;10.80;6.73;;;;;;;10.37;100.00;98989.88;4991827;28;20624;-76
2023/10/30 07:08:27;;;;;;;14.07;8.03;;;;;;;10.30;100.00;98989.47;4992822;28;20191;-76
2023/10/30 07:10:53;;;;;;;10.23;9.13;;;;;;;10.26;100.00;98999.16;4984578;28;20701;-75
2023/10/30 07:13:18;;;;;;;11.50;9.33;;;;;;;10.37;100.00;99001.00;4990946;28;20198;-75
2023/10/30 07:15:43;;;;;;;12.77;10.70;;;;;;;10.46;100.00;98999.53;4991655;28;20488;-76
2023/10/30 07:18:09;;;;;;;16.00;11.33;;;;;;;10.48;100.00;99006.19;4991229;28;20199;-77
2023/10/30 07:20:34;;;;;;;15.00;12.77;;;;;;;10.53;100.00;99007.59;4984802;28;20241;-76
2023/10/30 07:22:59;;;;;;;14.33;12.57;;;;;;;10.38;100.00;99005.22;4997890;28;20187;-77
2023/10/30 07:25:25;;;;;;;15.57;12.10;;;;;;;10.48;100.00;98998.47;4988129;28;20622;-76
2023/10/30 07:27:50;;;;;;;17.53;12.17;;;;;;;10.50;100.00;98995.78;4990985;28;20183;-74
2023/10/30 07:30:17;;;;;;;13.90;12.00;;;;;;;10.58;100.00;98998.63;4983564;28;20190;-77
2023/10/30 07:32:43;;;;;;;14.07;12.07;;;;;;;10.36;100.00;99004.50;5005671;28;20317;-76
2023/10/30 07:35:09;;;;;;;13.67;12.27;;;;;;;10.38;100.00;98997.50;4992166;28;20255;-76
2023/10/30 07:37:36;;;;;;;14.93;11.60;;;;;;;10.47;100.00;99014.84;4992266;28;20667;-76
2023/10/30 07:40:02;;;;;;;14.13;12.63;;;;;;;10.61;100.00;99013.84;4991307;28;20199;-75
2023/10/30 07:42:28;;;;;;;13.10;11.53;;;;;;;10.59;100.00;99014.88;4963332;28;20294;-73
2023/10/30 07:44:53;;;;;;;15.00;12.57;;;;;;;10.51;100.00;99014.63;4992012;28;20758;-73
2023/10/30 07:47:19;;;;;;;13.87;12.47;;;;;;;10.56;100.00;99015.13;4991108;28;20188;-72
2023/10/30 07:49:44;;;;;;;14.23;12.63;;;;;;;10.52;100.00;99014.50;4991325;28;20183;-74
2023/10/30 07:52:09;;;;;;;13.83;11.20;;;;;;;10.55;100.00;99019.41;4973898;28;20714;-72
2023/10/30 07:54:35;;;;;;;12.83;10.80;;;;;;;10.43;100.00;99013.41;4990579;28;20187;-72
2023/10/30 07:57:00;;;;;;;13.47;10.10;;;;;;;10.59;100.00;99014.88;4990793;28;20635;-72
2023/10/30 07:59:26;;;;;;;11.87;9.97;;;;;;;10.44;100.00;99009.09;4991193;28;20194;-73
2023/10/30 08:01:52;;;;;;;12.73;10.50;;;;;;;10.62;100.00;99010.34;4983944;28;20281;-73
2023/10/30 08:04:17;;;;;;;13.77;10.17;;;;;;;10.75;100.00;99017.97;4991199;28;20226;-75
2023/10/30 08:06:42;;;;;;;11.37;9.47;;;;;;;10.64;100.00;99015.38;4990828;28;20176;-75
2023/10/30 08:09:08;;;;;;;10.20;9.20;;;;;;;10.78;100.00;99012.63;4991911;28;20191;-74
2023/10/30 08:11:34;;;;;;;9.33;8.43;;;;;;;10.69;100.00;99013.28;4988743;28;20250;-73
2023/10/30 08:14:00;;;;;;;11.40;9.10;;;;;;;10.64;100.00;99010.22;4996500;28;20538;-76
2023/10/30 08:16:27;;;;;;;10.07;9.03;;;;;;;10.91;100.00;99025.41;4991796;28;20203;-72
2023/10/30 08:18:52;;;;;;;8.83;7.93;;;;;;;10.90;100.00;99023.78;4992498;28;20639;-75
2023/10/30 08:21:18;;;;;;;8.07;6.97;;;;;;;10.68;100.00;99026.25;4972757;28;20266;-75
2023/10/30 08:23:43;;;;;;;9.60;7.30;;;;;;;10.82;100.00;99026.88;4981228;28;20192;-73
2023/10/30 08:26:08;;;;;;;6.77;6.13;;;;;;;10.84;100.00;99028.53;4992752;28;20180;-74
2023/10/30 08:28:35;;;;;;;8.40;6.10;;;;;;;10.91;100.00;99027.97;4992362;28;20948;-73
2023/10/30 08:31:01;;;;;;;9.87;6.10;;;;;;;10.83;100.00;99027.72;4961905;28;20227;-76
2023/10/30 08:33:26;;;;;;;7.30;5.73;;;;;;;10.97;100.00;99022.38;4995386;28;20604;-74
2023/10/30 08:35:53;;;;;;;6.17;4.80;;;;;;;10.86;100.00;99034.41;4991716;28;20326;-74
2023/10/30 08:38:18;;;;;;;4.70;3.80;;;;;;;10.71;100.00;99021.72;4990235;28;20198;-74
2023/10/30 08:40:43;;;;;;;6.13;4.30;;;;;;;10.85;100.00;99015.56;4985816;28;20234;-73
2023/10/30 08:43:08;;;;;;;4.43;3.23;;;;;;;10.83;100.00;99017.44;4995941;28;20235;-73
2023/10/30 08:45:34;;;;;;;3.77;2.77;;;;;;;10.84;100.00;99013.09;4992126;28;20187;-73
2023/10/30 08:47:59;;;;;;;5.00;2.97;;;;;;;10.90;100.00;99010.91;4992234;28;20233;-75
2023/10/30 08:50:24;;;;;;;3.57;3.10;;;;;;;10.94;100.00;99003.75;4983168;28;20238;-76
2023/10/30 08:52:50;;;;;;;4.77;2.80;;;;;;;10.80;100.00;99007.34;4989115;28;20200;-72
2023/10/30 08:55:15;;;;;;;5.17;3.03;;;;;;;10.86;100.00;99006.91;4991681;28;20196;-73
2023/10/30 08:57:40;;;;;;;3.03;2.60;;;;;;;10.89;100.00;99001.56;4994518;28;20238;-72
2023/10/30 09:00:06;;;;;;;4.87;3.13;;;;;;;10.95;100.00;99003.69;4984427;28;20192;-73
2023/10/30 09:02:32;;;;;;;3.93;2.67;;;;;;;10.92;100.00;98985.06;4993000;28;20195;-75
2023/10/30 09:04:58;;;;;;;6.20;3.20;;;;;;;10.91;100.00;98978.28;4994465;28;20187;-74
2023/10/30 09:07:23;;;;;;;8.93;2.50;;;;;;;10.93;100.00;98968.69;4993987;28;20186;-72
2023/10/30 09:09:48;;;;;;;5.63;2.20;;;;;;;11.01;100.00;98957.84;4993837;28;20600;-71
2023/10/30 09:12:14;;;;;;;3.37;2.30;;;;;;;11.22;100.00;98951.06;4986621;28;20219;-71
2023/10/30 09:14:39;;;;;;;3.17;2.53;;;;;;;11.33;100.00;98949.44;4995217;28;20205;-72
2023/10/30 09:17:08;;;;;;;3.30;2.40;;;;;;;11.35;100.00;98944.97;4994018;28;20631;-72
2023/10/30 09:19:33;;;;;;;3.30;2.50;;;;;;;11.22;100.00;98934.81;4994205;28;20184;-74
2023/10/30 09:21:59;;;;;;;5.27;3.83;;;;;;;11.30;100.00;98920.41;4999635;28;20273;-74
2023/10/30 09:24:25;;;;;;;8.50;2.93;;;;;;;11.24;100.00;98912.34;4995491;28;20290;-75
2023/10/30 09:26:50;;;;;;;4.03;3.07;;;;;;;11.28;100.00;98914.56;4994141;28;20207;-73
2023/10/30 09:29:15;;;;;;;3.20;2.90;;;;;;;11.24;100.00;98907.22;4994726;28;20219;-74
2023/10/30 09:31:40;;;;;;;4.70;4.07;;;;;;;11.40;100.00;98906.81;4974522;28;20424;-74
2023/10/30 09:34:06;;;;;;;4.43;3.63;;;;;;;11.45;100.00;98900.41;4987070;28;20685;-73
2023/10/30 09:36:31;;;;;;;4.77;4.37;;;;;;;11.48;100.00;98901.09;4994646;28;20176;-73
2023/10/30 09:38:56;;;;;;;6.50;4.63;;;;;;;11.52;100.00;98887.84;4993119;28;20195;-73
2023/10/30 09:41:25;;;;;;;6.20;5.60;;;;;;;11.75;100.00;98873.16;4993964;28;20217;-73
2023/10/30 09:43:52;;;;;;;6.03;5.53;;;;;;;11.86;100.00;98861.22;4993171;28;20183;-72
2023/10/30 09:46:22;;;;;;;6.83;6.23;;;;;;;12.28;100.00;98853.56;4993004;28;20658;-73
2023/10/30 09:48:48;;;;;;;6.33;5.73;;;;;;;12.29;100.00;98850.03;4994535;28;20199;-73
2023/10/30 09:51:14;;;;;;;5.93;5.33;;;;;;;12.32;100.00;98862.69;4986204;28;20687;-73
2023/10/30 09:53:40;;;;;;;6.00;5.40;;;;;;;12.21;100.00;98865.31;4992514;28;20198;-71
2023/10/30 09:56:07;;;;;;;6.20;5.70;;;;;;;12.35;100.00;98883.03;4994186;28;20179;-73
2023/10/30 09:58:33;;;;;;;5.80;5.30;;;;;;;12.58;100.00;98888.91;4993572;28;20191;-72
2023/10/30 10:00:59;;;;;;;6.33;5.83;;;;;;;12.62;100.00;98886.88;4986066;28;20586;-72
2023/10/30 10:03:26;;;;;;;5.93;5.43;;;;;;;12.67;100.00;98887.31;5001693;28;20227;-72
2023/10/30 10:05:58;;;;;;;5.90;5.40;;;;;;;12.91;100.00;98893.97;4994949;28;20206;-72
2023/10/30 10:08:24;;;;;;;5.23;4.83;;;;;;;12.98;100.00;98891.72;4994709;28;20183;-72
2023/10/30 10:11:00;;;;;;;5.17;4.40;;;;;;;12.78;100.00;98890.78;4990617;28;20230;-72
2023/10/30 10:13:26;;;;;;;4.93;4.03;;;;;;;12.67;100.00;98891.69;4997847;28;20195;-72
2023/10/30 10:15:52;;;;;;;4.07;3.47;;;;;;;12.43;100.00;98883.25;5004379;28;20283;-71
2023/10/30 10:18:28;;;;;;;4.13;3.30;;;;;;;12.33;100.00;98881.53;4994579;28;20640;-73
2023/10/30 10:20:55;;;;;;;3.00;2.80;;;;;;;12.67;100.00;98879.59;4991394;28;20230;-73
2023/10/30 10:23:21;;;;;;;3.77;2.97;;;;;;;12.78;100.00;98889.03;5001361;28;20636;-77
2023/10/30 10:25:55;;;;;;;3.30;3.00;;;;;;;12.69;100.00;98882.88;4992374;28;20261;-81
2023/10/30 10:28:24;;;;;;;2.63;2.43;;;;;;;12.79;100.00;98888.09;4994511;28;20178;-78
2023/10/30 10:30:51;;;;;;;2.73;2.53;;;;;;;12.75;100.00;98879.78;4987525;28;20242;-72
2023/10/30 10:33:18;;;;;;;2.83;2.20;;;;;;;12.78;100.00;98877.91;4990806;28;20202;-71
2023/10/30 10:35:43;;;;;;;3.43;2.60;;;;;;;12.79;100.00;98867.44;4992861;28;20187;-72
2023/10/30 10:38:10;;;;;;;6.37;2.87;;;;;;;13.02;100.00;98862.09;4992286;28;20186;-71
2023/10/30 10:40:37;;;;;;;2.30;2.10;;;;;;;12.86;100.00;98844.50;4988243;28;20273;-72
2023/10/30 10:43:02;;;;;;;3.17;2.43;;;;;;;12.67;100.00;98851.22;5004030;28;20187;-73
2023/10/30 10:45:30;;;;;;;2.50;2.30;;;;;;;12.64;100.00;98842.91;4993474;28;20190;-73
2023/10/30 10:47:56;;;;;;;5.80;2.37;;;;;;;12.73;100.00;98837.78;4989416;28;20198;-73
2023/10/30 10:50:22;;;;;;;2.70;2.37;;;;;;;12.78;100.00;98823.72;4978874;28;20299;-74
2023/10/30 10:52:48;;;;;;;3.10;2.23;;;;;;;12.70;100.00;98822.59;4993414;28;20184;-74
2023/10/30 10:55:22;;;;;;;2.03;1.87;;;;;;;12.78;100.00;98813.38;4992194;28;20193;-74
2023/10/30 10:58:05;;;;;;;2.33;2.00;;;;;;;12.78;100.00;98803.06;4993445;28;20211;-75
2023/10/30 11:00:36;;;;;;;2.73;2.30;;;;;;;12.78;100.00;98785.81;4984364;28;20244;-77
2023/10/30 11:03:05;;;;;;;4.10;2.60;;;;;;;12.74;100.00;98789.59;5003392;28;20249;-78
2023/10/30 11:05:33;;;;;;;3.10;2.07;;;;;;;12.67;100.00;98778.97;4980538;28;20191;-79
2023/10/30 11:08:50;;;;;;;3.90;2.73;;;;;;;12.64;100.00;98781.81;4993143;28;20175;-79
2023/10/30 11:11:22;;;;;;;3.63;2.17;;;;;;;12.84;100.00;98794.81;4982940;28;20243;-76
2023/10/30 11:13:58;;;;;;;3.23;2.37;;;;;;;13.17;100.00;98790.25;4986459;28;20604;-76
2023/10/30 11:16:28;;;;;;;2.90;2.53;;;;;;;13.48;100.00;98792.78;4991743;28;20194;-74
2023/10/30 11:18:58;;;;;;;2.97;1.90;;;;;;;13.71;100.00;98785.63;4995529;28;20187;-73